Detroit, Michigan
Traffic Map
Current Weather Conditions
Detroit, Michigan
Scattered Clouds
Scattered Clouds
66°
Feels Like: 66°
Wind Chill: 66° Ceiling: Unl
Heat Index: 66° Visibility: 7mi
Dew Point: 66° Wind: 2mph
Humidity: 100% Direction: 290° (WNW)
Pressure: 29.95in Gusts: 0mph
Raw Report DataCYQG 221000Z 29002KT 7SM FEW030 SCT160 19/19 A2995 RMK SC1AC3 SLP141
Traffic Incident Summary
Active as of:
Severity:
Category:
InformationThere was an issue retrieving the traffic information for this location. Please try a different location or try again shortly.
Advertisements
Track Severe Weather on mobile